sensor_id;sensor_type;location;lat;lon;timestamp;temperature;humidity
3406;DHT22;10008;48.682;9.016;2023-04-15T00:00:14;4.70;99.90
3406;DHT22;10008;48.682;9.016;2023-04-15T00:02:40;4.20;99.90
3406;DHT22;10008;48.682;9.016;2023-04-15T00:05:06;4.20;99.90
3406;DHT22;10008;48.682;9.016;2023-04-15T00:07:32;4.20;99.90
3406;DHT22;10008;48.682;9.016;2023-04-15T00:09:58;4.60;99.90
3406;DHT22;10008;48.682;9.016;2023-04-15T00:12:25;4.20;99.90
3406;DHT22;10008;48.682;9.016;2023-04-15T00:14:51;4.10;99.90
3406;DHT22;10008;48.682;9.016;2023-04-15T00:17:17;4.30;99.90
3406;DHT22;10008;48.682;9.016;2023-04-15T00:19:43;4.00;99.90
3406;DHT22;10008;48.682;9.016;2023-04-15T00:22:13;4.00;99.90
3406;DHT22;10008;48.682;9.016;2023-04-15T00:24:38;3.90;99.90
3406;DHT22;10008;48.682;9.016;2023-04-15T00:27:04;4.00;99.90
3406;DHT22;10008;48.682;9.016;2023-04-15T00:29:30;4.00;99.90
3406;DHT22;10008;48.682;9.016;2023-04-15T00:31:56;5.90;99.90
3406;DHT22;10008;48.682;9.016;2023-04-15T00:34:22;3.90;99.90
3406;DHT22;10008;48.682;9.016;2023-04-15T00:36:49;3.90;99.90
3406;DHT22;10008;48.682;9.016;2023-04-15T00:39:16;3.90;99.90
3406;DHT22;10008;48.682;9.016;2023-04-15T00:41:42;5.00;99.90
3406;DHT22;10008;48.682;9.016;2023-04-15T00:44:08;5.10;99.90
3406;DHT22;10008;48.682;9.016;2023-04-15T00:46:35;3.70;99.90
3406;DHT22;10008;48.682;9.016;2023-04-15T00:49:06;3.70;99.90
3406;DHT22;10008;48.682;9.016;2023-04-15T00:51:35;3.90;99.90
3406;DHT22;10008;48.682;9.016;2023-04-15T00:54:02;4.30;99.90
3406;DHT22;10008;48.682;9.016;2023-04-15T00:56:29;3.60;99.90
3406;DHT22;10008;48.682;9.016;2023-04-15T00:58:56;4.00;99.90
3406;DHT22;10008;48.682;9.016;2023-04-15T01:01:24;3.60;99.90
3406;DHT22;10008;48.682;9.016;2023-04-15T01:03:50;3.60;99.90
3406;DHT22;10008;48.682;9.016;2023-04-15T01:06:17;3.60;99.90
3406;DHT22;10008;48.682;9.016;2023-04-15T01:08:44;3.60;99.90
3406;DHT22;10008;48.682;9.016;2023-04-15T01:11:12;3.60;99.90
3406;DHT22;10008;48.682;9.016;2023-04-15T01:13:39;3.60;99.90
3406;DHT22;10008;48.682;9.016;2023-04-15T01:16:05;3.60;99.90
3406;DHT22;10008;48.682;9.016;2023-04-15T01:18:32;3.50;99.90
3406;DHT22;10008;48.682;9.016;2023-04-15T01:21:00;4.00;99.90
3406;DHT22;10008;48.682;9.016;2023-04-15T01:23:26;3.50;99.90
3406;DHT22;10008;48.682;9.016;2023-04-15T01:25:53;3.50;99.90
3406;DHT22;10008;48.682;9.016;2023-04-15T01:28:20;3.50;99.90
3406;DHT22;10008;48.682;9.016;2023-04-15T01:30:46;3.40;99.90
3406;DHT22;10008;48.682;9.016;2023-04-15T01:33:13;3.50;99.90
3406;DHT22;10008;48.682;9.016;2023-04-15T01:35:39;3.40;99.90
3406;DHT22;10008;48.682;9.016;2023-04-15T01:38:06;4.40;99.90
3406;DHT22;10008;48.682;9.016;2023-04-15T01:40:33;3.40;99.90
3406;DHT22;10008;48.682;9.016;2023-04-15T01:43:00;4.20;99.90
3406;DHT22;10008;48.682;9.016;2023-04-15T01:45:25;3.20;99.90
3406;DHT22;10008;48.682;9.016;2023-04-15T01:47:51;3.20;99.90
3406;DHT22;10008;48.682;9.016;2023-04-15T01:50:17;3.50;99.90
3406;DHT22;10008;48.682;9.016;2023-04-15T01:52:45;3.10;99.90
3406;DHT22;10008;48.682;9.016;2023-04-15T01:55:11;3.10;99.90
3406;DHT22;10008;48.682;9.016;2023-04-15T01:57:38;4.10;99.90
3406;DHT22;10008;48.682;9.016;2023-04-15T02:00:05;3.00;99.90
3406;DHT22;10008;48.682;9.016;2023-04-15T02:02:38;3.10;99.90
3406;DHT22;10008;48.682;9.016;2023-04-15T02:05:04;3.00;99.90
3406;DHT22;10008;48.682;9.016;2023-04-15T02:07:30;3.00;99.90
3406;DHT22;10008;48.682;9.016;2023-04-15T02:09:57;3.00;99.90
3406;DHT22;10008;48.682;9.016;2023-04-15T02:12:22;3.00;99.90
3406;DHT22;10008;48.682;9.016;2023-04-15T02:14:48;3.00;99.90
3406;DHT22;10008;48.682;9.016;2023-04-15T02:17:14;3.00;99.90
3406;DHT22;10008;48.682;9.016;2023-04-15T02:19:42;3.40;99.90
3406;DHT22;10008;48.682;9.016;2023-04-15T02:22:07;2.90;99.90
3406;DHT22;10008;48.682;9.016;2023-04-15T02:24:34;3.60;99.90
3406;DHT22;10008;48.682;9.016;2023-04-15T02:27:01;3.00;99.90
3406;DHT22;10008;48.682;9.016;2023-04-15T02:29:28;4.30;99.90
3406;DHT22;10008;48.682;9.016;2023-04-15T02:31:53;3.00;99.90
3406;DHT22;10008;48.682;9.016;2023-04-15T02:34:19;3.10;99.90
3406;DHT22;10008;48.682;9.016;2023-04-15T02:36:45;2.80;99.90
3406;DHT22;10008;48.682;9.016;2023-04-15T02:39:14;2.70;99.90
3406;DHT22;10008;48.682;9.016;2023-04-15T02:41:41;4.70;99.90
3406;DHT22;10008;48.682;9.016;2023-04-15T02:44:09;2.70;99.90
3406;DHT22;10008;48.682;9.016;2023-04-15T02:46:37;2.90;99.90
3406;DHT22;10008;48.682;9.016;2023-04-15T02:49:03;3.90;99.90
3406;DHT22;10008;48.682;9.016;2023-04-15T02:51:30;3.80;99.90
3406;DHT22;10008;48.682;9.016;2023-04-15T02:53:56;3.20;99.90
3406;DHT22;10008;48.682;9.016;2023-04-15T02:56:22;2.60;99.90
3406;DHT22;10008;48.682;9.016;2023-04-15T02:58:48;4.50;99.90
3406;DHT22;10008;48.682;9.016;2023-04-15T03:01:15;3.80;99.90
3406;DHT22;10008;48.682;9.016;2023-04-15T05:07:14;2.50;99.90
3406;DHT22;10008;48.682;9.016;2023-04-15T05:09:40;3.50;99.90
3406;DHT22;10008;48.682;9.016;2023-04-15T05:12:06;3.00;99.90
3406;DHT22;10008;48.682;9.016;2023-04-15T05:14:33;3.00;99.90
3406;DHT22;10008;48.682;9.016;2023-04-15T05:16:59;2.90;99.90
3406;DHT22;10008;48.682;9.016;2023-04-15T05:19:25;2.90;99.90
3406;DHT22;10008;48.682;9.016;2023-04-15T05:21:50;5.00;99.90
3406;DHT22;10008;48.682;9.016;2023-04-15T05:24:16;4.20;99.90
3406;DHT22;10008;48.682;9.016;2023-04-15T05:26:42;5.20;99.90
3406;DHT22;10008;48.682;9.016;2023-04-15T05:29:08;5.70;99.90
3406;DHT22;10008;48.682;9.016;2023-04-15T05:31:34;6.10;99.90
3406;DHT22;10008;48.682;9.016;2023-04-15T05:34:00;6.70;99.90
3406;DHT22;10008;48.682;9.016;2023-04-15T05:36:26;7.50;99.90
3406;DHT22;10008;48.682;9.016;2023-04-15T05:38:53;8.10;99.90
3406;DHT22;10008;48.682;9.016;2023-04-15T05:41:18;8.80;99.90
3406;DHT22;10008;48.682;9.016;2023-04-15T05:43:45;9.60;99.90
3406;DHT22;10008;48.682;9.016;2023-04-15T05:46:11;10.40;99.90
3406;DHT22;10008;48.682;9.016;2023-04-15T05:48:37;11.00;99.90
3406;DHT22;10008;48.682;9.016;2023-04-15T05:51:02;11.50;99.90
3406;DHT22;10008;48.682;9.016;2023-04-15T05:53:28;12.10;99.50
3406;DHT22;10008;48.682;9.016;2023-04-15T05:55:54;12.90;97.70
3406;DHT22;10008;48.682;9.016;2023-04-15T05:58:20;12.90;96.00
3406;DHT22;10008;48.682;9.016;2023-04-15T06:00:46;11.80;94.80
3406;DHT22;10008;48.682;9.016;2023-04-15T06:03:11;10.40;96.40
3406;DHT22;10008;48.682;9.016;2023-04-15T06:05:37;9.70;98.50
3406;DHT22;10008;48.682;9.016;2023-04-15T06:08:03;9.20;99.90
3406;DHT22;10008;48.682;9.016;2023-04-15T06:10:29;8.90;99.90
3406;DHT22;10008;48.682;9.016;2023-04-15T06:12:55;8.70;99.90
3406;DHT22;10008;48.682;9.016;2023-04-15T06:15:21;8.70;99.90
3406;DHT22;10008;48.682;9.016;2023-04-15T06:17:47;8.90;99.90
3406;DHT22;10008;48.682;9.016;2023-04-15T06:20:13;8.80;99.90
3406;DHT22;10008;48.682;9.016;2023-04-15T06:22:38;8.80;99.90
3406;DHT22;10008;48.682;9.016;2023-04-15T06:25:06;8.50;99.90
3406;DHT22;10008;48.682;9.016;2023-04-15T06:27:33;8.50;99.90
3406;DHT22;10008;48.682;9.016;2023-04-15T06:29:58;8.90;99.90
3406;DHT22;10008;48.682;9.016;2023-04-15T06:32:24;9.60;99.90
3406;DHT22;10008;48.682;9.016;2023-04-15T06:34:50;10.30;99.90
3406;DHT22;10008;48.682;9.016;2023-04-15T06:37:16;10.70;99.20
3406;DHT22;10008;48.682;9.016;2023-04-15T06:39:41;11.30;98.70
3406;DHT22;10008;48.682;9.016;2023-04-15T06:42:09;11.80;97.10
3406;DHT22;10008;48.682;9.016;2023-04-15T06:44:35;12.10;96.20
3406;DHT22;10008;48.682;9.016;2023-04-15T06:47:02;12.00;94.50
3406;DHT22;10008;48.682;9.016;2023-04-15T06:49:27;12.30;95.50
3406;DHT22;10008;48.682;9.016;2023-04-15T06:51:53;12.10;95.20
3406;DHT22;10008;48.682;9.016;2023-04-15T06:54:19;12.00;94.90
3406;DHT22;10008;48.682;9.016;2023-04-15T06:56:45;12.10;95.40
3406;DHT22;10008;48.682;9.016;2023-04-15T06:59:10;12.20;95.20
3406;DHT22;10008;48.682;9.016;2023-04-15T07:01:37;12.10;94.80
3406;DHT22;10008;48.682;9.016;2023-04-15T07:04:03;12.10;94.50
3406;DHT22;10008;48.682;9.016;2023-04-15T07:06:28;12.10;93.80
3406;DHT22;10008;48.682;9.016;2023-04-15T07:08:54;12.20;94.40
3406;DHT22;10008;48.682;9.016;2023-04-15T07:11:20;12.20;94.50
3406;DHT22;10008;48.682;9.016;2023-04-15T07:13:45;12.20;93.10
3406;DHT22;10008;48.682;9.016;2023-04-15T07:16:11;12.60;94.20
3406;DHT22;10008;48.682;9.016;2023-04-15T07:18:37;13.30;92.60
3406;DHT22;10008;48.682;9.016;2023-04-15T07:21:03;14.50;91.40
3406;DHT22;10008;48.682;9.016;2023-04-15T07:23:29;15.20;90.70
3406;DHT22;10008;48.682;9.016;2023-04-15T07:25:56;16.10;89.60
3406;DHT22;10008;48.682;9.016;2023-04-15T07:28:21;16.90;85.40
3406;DHT22;10008;48.682;9.016;2023-04-15T07:30:47;17.70;82.80
3406;DHT22;10008;48.682;9.016;2023-04-15T07:33:13;18.10;79.30
3406;DHT22;10008;48.682;9.016;2023-04-15T07:35:39;18.10;77.30
3406;DHT22;10008;48.682;9.016;2023-04-15T07:38:04;17.80;75.80
3406;DHT22;10008;48.682;9.016;2023-04-15T07:40:30;17.20;74.60
3406;DHT22;10008;48.682;9.016;2023-04-15T07:42:56;17.20;76.30
3406;DHT22;10008;48.682;9.016;2023-04-15T07:45:23;17.00;76.40
3406;DHT22;10008;48.682;9.016;2023-04-15T07:47:49;16.30;74.50
3406;DHT22;10008;48.682;9.016;2023-04-15T07:50:15;15.80;75.20
3406;DHT22;10008;48.682;9.016;2023-04-15T07:52:42;15.80;78.00
3406;DHT22;10008;48.682;9.016;2023-04-15T07:55:09;15.20;77.50
3406;DHT22;10008;48.682;9.016;2023-04-15T07:57:35;14.80;77.80
3406;DHT22;10008;48.682;9.016;2023-04-15T08:00:02;15.20;78.10
3406;DHT22;10008;48.682;9.016;2023-04-15T08:02:38;16.00;78.60
3406;DHT22;10008;48.682;9.016;2023-04-15T08:05:04;16.90;77.70
3406;DHT22;10008;48.682;9.016;2023-04-15T08:07:31;17.40;74.50
3406;DHT22;10008;48.682;9.016;2023-04-15T08:09:57;18.10;72.90
3406;DHT22;10008;48.682;9.016;2023-04-15T08:12:23;19.30;71.00
3406;DHT22;10008;48.682;9.016;2023-04-15T08:14:49;20.30;68.70
3406;DHT22;10008;48.682;9.016;2023-04-15T08:17:15;20.50;65.70
3406;DHT22;10008;48.682;9.016;2023-04-15T08:19:41;22.10;64.50
3406;DHT22;10008;48.682;9.016;2023-04-15T08:22:07;22.60;60.70
3406;DHT22;10008;48.682;9.016;2023-04-15T08:24:33;22.60;59.40
3406;DHT22;10008;48.682;9.016;2023-04-15T08:26:59;22.50;58.50
3406;DHT22;10008;48.682;9.016;2023-04-15T08:29:26;22.80;58.30
3406;DHT22;10008;48.682;9.016;2023-04-15T08:31:53;22.60;57.80
3406;DHT22;10008;48.682;9.016;2023-04-15T08:34:20;21.80;57.20
3406;DHT22;10008;48.682;9.016;2023-04-15T08:36:45;20.10;57.40
3406;DHT22;10008;48.682;9.016;2023-04-15T08:39:11;18.90;58.40
3406;DHT22;10008;48.682;9.016;2023-04-15T08:42:02;17.90;59.70
3406;DHT22;10008;48.682;9.016;2023-04-15T08:44:33;17.50;63.40
3406;DHT22;10008;48.682;9.016;2023-04-15T08:47:02;17.00;64.50
3406;DHT22;10008;48.682;9.016;2023-04-15T08:49:29;16.70;68.00
3406;DHT22;10008;48.682;9.016;2023-04-15T08:51:57;16.80;65.80
3406;DHT22;10008;48.682;9.016;2023-04-15T08:54:24;16.40;66.00
3406;DHT22;10008;48.682;9.016;2023-04-15T08:56:51;16.30;67.80
3406;DHT22;10008;48.682;9.016;2023-04-15T08:59:19;16.60;66.40
3406;DHT22;10008;48.682;9.016;2023-04-15T09:01:47;16.20;64.40
3406;DHT22;10008;48.682;9.016;2023-04-15T09:04:13;15.80;65.70
3406;DHT22;10008;48.682;9.016;2023-04-15T09:06:39;15.60;65.00
3406;DHT22;10008;48.682;9.016;2023-04-15T09:09:06;15.60;64.20
3406;DHT22;10008;48.682;9.016;2023-04-15T09:11:31;16.00;63.80
3406;DHT22;10008;48.682;9.016;2023-04-15T09:13:57;16.20;63.10
3406;DHT22;10008;48.682;9.016;2023-04-15T09:16:23;16.70;61.10
3406;DHT22;10008;48.682;9.016;2023-04-15T09:18:49;16.90;60.60
3406;DHT22;10008;48.682;9.016;2023-04-15T09:21:17;17.70;60.70
3406;DHT22;10008;48.682;9.016;2023-04-15T09:23:58;18.40;59.70
3406;DHT22;10008;48.682;9.016;2023-04-15T09:26:35;19.40;58.20
3406;DHT22;10008;48.682;9.016;2023-04-15T09:29:05;19.40;55.60
3406;DHT22;10008;48.682;9.016;2023-04-15T09:31:31;19.20;55.40
3406;DHT22;10008;48.682;9.016;2023-04-15T09:33:57;19.20;56.40
3406;DHT22;10008;48.682;9.016;2023-04-15T09:36:23;19.20;57.30
3406;DHT22;10008;48.682;9.016;2023-04-15T09:38:57;18.80;55.30
3406;DHT22;10008;48.682;9.016;2023-04-15T09:41:25;18.60;56.20
3406;DHT22;10008;48.682;9.016;2023-04-15T09:43:51;17.90;55.30
3406;DHT22;10008;48.682;9.016;2023-04-15T09:46:17;18.30;54.70
3406;DHT22;10008;48.682;9.016;2023-04-15T09:48:43;18.40;54.60
3406;DHT22;10008;48.682;9.016;2023-04-15T09:51:09;18.70;54.00
3406;DHT22;10008;48.682;9.016;2023-04-15T09:53:36;18.70;51.60
3406;DHT22;10008;48.682;9.016;2023-04-15T09:56:03;17.80;53.70
3406;DHT22;10008;48.682;9.016;2023-04-15T09:58:33;18.00;56.00
3406;DHT22;10008;48.682;9.016;2023-04-15T10:01:02;18.20;54.70
3406;DHT22;10008;48.682;9.016;2023-04-15T10:03:30;18.10;54.60
3406;DHT22;10008;48.682;9.016;2023-04-15T10:05:59;19.70;57.10
3406;DHT22;10008;48.682;9.016;2023-04-15T10:08:30;18.10;56.20
3406;DHT22;10008;48.682;9.016;2023-04-15T10:10:57;18.40;57.40
3406;DHT22;10008;48.682;9.016;2023-04-15T10:13:25;18.60;53.30
3406;DHT22;10008;48.682;9.016;2023-04-15T10:16:04;18.00;52.90
3406;DHT22;10008;48.682;9.016;2023-04-15T10:18:34;18.00;51.20
3406;DHT22;10008;48.682;9.016;2023-04-15T10:21:00;17.40;51.30
3406;DHT22;10008;48.682;9.016;2023-04-15T10:23:26;17.10;55.30
3406;DHT22;10008;48.682;9.016;2023-04-15T10:25:53;16.80;55.40
3406;DHT22;10008;48.682;9.016;2023-04-15T10:28:19;16.60;56.00
3406;DHT22;10008;48.682;9.016;2023-04-15T10:30:47;17.00;54.90
3406;DHT22;10008;48.682;9.016;2023-04-15T10:33:16;17.70;54.00
3406;DHT22;10008;48.682;9.016;2023-04-15T10:35:44;17.70;54.40
3406;DHT22;10008;48.682;9.016;2023-04-15T10:38:31;17.60;53.10
3406;DHT22;10008;48.682;9.016;2023-04-15T10:43:54;17.00;55.40
3406;DHT22;10008;48.682;9.016;2023-04-15T10:46:33;16.60;56.10
3406;DHT22;10008;48.682;9.016;2023-04-15T10:49:10;16.50;56.30
3406;DHT22;10008;48.682;9.016;2023-04-15T10:51:40;16.10;56.10
3406;DHT22;10008;48.682;9.016;2023-04-15T10:54:36;16.10;53.10
3406;DHT22;10008;48.682;9.016;2023-04-15T11:05:06;15.90;59.80
3406;DHT22;10008;48.682;9.016;2023-04-15T11:07:34;16.10;61.80
3406;DHT22;10008;48.682;9.016;2023-04-15T11:10:00;16.20;61.60
3406;DHT22;10008;48.682;9.016;2023-04-15T11:12:35;16.20;62.20
3406;DHT22;10008;48.682;9.016;2023-04-15T11:18:13;15.60;65.80
3406;DHT22;10008;48.682;9.016;2023-04-15T11:20:44;15.40;67.90
3406;DHT22;10008;48.682;9.016;2023-04-15T11:23:10;15.40;68.10
3406;DHT22;10008;48.682;9.016;2023-04-15T11:25:36;15.00;69.00
3406;DHT22;10008;48.682;9.016;2023-04-15T11:28:03;14.80;68.30
3406;DHT22;10008;48.682;9.016;2023-04-15T11:30:31;14.90;67.00
3406;DHT22;10008;48.682;9.016;2023-04-15T11:33:03;15.40;65.90
3406;DHT22;10008;48.682;9.016;2023-04-15T11:35:30;17.10;64.50
3406;DHT22;10008;48.682;9.016;2023-04-15T11:37:56;17.80;63.00
3406;DHT22;10008;48.682;9.016;2023-04-15T11:40:23;17.10;59.30
3406;DHT22;10008;48.682;9.016;2023-04-15T11:45:30;16.00;59.20
3406;DHT22;10008;48.682;9.016;2023-04-15T11:48:09;15.90;59.80
3406;DHT22;10008;48.682;9.016;2023-04-15T11:50:37;16.70;58.30
3406;DHT22;10008;48.682;9.016;2023-04-15T11:53:06;17.40;57.20
3406;DHT22;10008;48.682;9.016;2023-04-15T11:55:47;18.30;58.60
3406;DHT22;10008;48.682;9.016;2023-04-15T11:58:23;19.00;58.00
3406;DHT22;10008;48.682;9.016;2023-04-15T12:03:23;18.80;54.30
3406;DHT22;10008;48.682;9.016;2023-04-15T12:13:54;17.20;55.40
3406;DHT22;10008;48.682;9.016;2023-04-15T12:16:22;17.50;58.30
3406;DHT22;10008;48.682;9.016;2023-04-15T12:18:52;17.60;57.90
3406;DHT22;10008;48.682;9.016;2023-04-15T12:21:21;17.90;58.80
3406;DHT22;10008;48.682;9.016;2023-04-15T12:23:51;17.80;59.60
3406;DHT22;10008;48.682;9.016;2023-04-15T12:26:28;17.40;59.10
3406;DHT22;10008;48.682;9.016;2023-04-15T12:29:04;17.30;62.30
3406;DHT22;10008;48.682;9.016;2023-04-15T12:31:31;18.00;62.30
3406;DHT22;10008;48.682;9.016;2023-04-15T12:33:58;18.50;59.30
3406;DHT22;10008;48.682;9.016;2023-04-15T12:36:25;18.60;58.30
3406;DHT22;10008;48.682;9.016;2023-04-15T12:38:51;18.20;59.80
3406;DHT22;10008;48.682;9.016;2023-04-15T12:41:17;17.80;60.60
3406;DHT22;10008;48.682;9.016;2023-04-15T12:43:45;17.30;61.90
3406;DHT22;10008;48.682;9.016;2023-04-15T12:46:12;16.70;64.90
3406;DHT22;10008;48.682;9.016;2023-04-15T12:48:39;16.60;61.20
3406;DHT22;10008;48.682;9.016;2023-04-15T12:51:05;16.80;59.70
3406;DHT22;10008;48.682;9.016;2023-04-15T12:53:30;17.60;57.40
3406;DHT22;10008;48.682;9.016;2023-04-15T12:55:56;17.60;57.70
3406;DHT22;10008;48.682;9.016;2023-04-15T12:58:22;17.60;56.20
3406;DHT22;10008;48.682;9.016;2023-04-15T13:00:48;17.20;55.00
3406;DHT22;10008;48.682;9.016;2023-04-15T13:03:15;16.90;55.20
3406;DHT22;10008;48.682;9.016;2023-04-15T13:05:41;16.80;56.60
3406;DHT22;10008;48.682;9.016;2023-04-15T13:08:06;17.00;57.60
3406;DHT22;10008;48.682;9.016;2023-04-15T13:10:34;17.20;62.30
3406;DHT22;10008;48.682;9.016;2023-04-15T13:13:01;16.80;64.00
3406;DHT22;10008;48.682;9.016;2023-04-15T13:15:28;15.90;65.70
3406;DHT22;10008;48.682;9.016;2023-04-15T13:17:53;15.70;68.50
3406;DHT22;10008;48.682;9.016;2023-04-15T13:20:19;15.40;70.90
3406;DHT22;10008;48.682;9.016;2023-04-15T13:22:45;15.50;68.90
3406;DHT22;10008;48.682;9.016;2023-04-15T13:25:11;15.40;68.30
3406;DHT22;10008;48.682;9.016;2023-04-15T13:27:37;15.20;67.80
3406;DHT22;10008;48.682;9.016;2023-04-15T13:30:03;15.20;69.00
3406;DHT22;10008;48.682;9.016;2023-04-15T13:32:29;15.00;68.00
3406;DHT22;10008;48.682;9.016;2023-04-15T13:34:55;14.80;68.10
3406;DHT22;10008;48.682;9.016;2023-04-15T13:37:28;14.40;69.20
3406;DHT22;10008;48.682;9.016;2023-04-15T13:39:55;14.10;69.90
3406;DHT22;10008;48.682;9.016;2023-04-15T13:42:22;13.70;69.10
3406;DHT22;10008;48.682;9.016;2023-04-15T13:44:50;13.10;69.80
3406;DHT22;10008;48.682;9.016;2023-04-15T13:47:18;12.60;71.10
3406;DHT22;10008;48.682;9.016;2023-04-15T13:49:44;12.40;72.00
3406;DHT22;10008;48.682;9.016;2023-04-15T13:52:10;12.40;74.20
3406;DHT22;10008;48.682;9.016;2023-04-15T13:54:36;12.10;77.50
3406;DHT22;10008;48.682;9.016;2023-04-15T13:57:02;12.00;78.30
3406;DHT22;10008;48.682;9.016;2023-04-15T13:59:29;12.00;77.50
3406;DHT22;10008;48.682;9.016;2023-04-15T14:01:55;12.00;78.20
3406;DHT22;10008;48.682;9.016;2023-04-15T14:04:21;12.20;77.40
3406;DHT22;10008;48.682;9.016;2023-04-15T14:06:46;12.40;76.50
3406;DHT22;10008;48.682;9.016;2023-04-15T14:09:12;12.60;74.30
3406;DHT22;10008;48.682;9.016;2023-04-15T14:11:38;12.60;72.30
3406;DHT22;10008;48.682;9.016;2023-04-15T14:14:04;12.90;70.60
3406;DHT22;10008;48.682;9.016;2023-04-15T14:16:33;13.10;70.10
3406;DHT22;10008;48.682;9.016;2023-04-15T14:19:00;13.40;69.00
3406;DHT22;10008;48.682;9.016;2023-04-15T14:21:26;13.70;67.50
3406;DHT22;10008;48.682;9.016;2023-04-15T14:23:56;13.80;64.60
3406;DHT22;10008;48.682;9.016;2023-04-15T14:26:22;13.50;60.00
3406;DHT22;10008;48.682;9.016;2023-04-15T14:28:48;13.30;54.50
3406;DHT22;10008;48.682;9.016;2023-04-15T14:31:14;13.20;55.60
3406;DHT22;10008;48.682;9.016;2023-04-15T14:33:40;12.80;54.60
3406;DHT22;10008;48.682;9.016;2023-04-15T14:36:08;12.70;55.00
3406;DHT22;10008;48.682;9.016;2023-04-15T14:38:35;12.60;57.80
3406;DHT22;10008;48.682;9.016;2023-04-15T14:41:07;12.50;59.50
3406;DHT22;10008;48.682;9.016;2023-04-15T14:43:34;12.30;59.70
3406;DHT22;10008;48.682;9.016;2023-04-15T14:46:00;12.20;60.00
3406;DHT22;10008;48.682;9.016;2023-04-15T14:48:26;12.00;61.50
3406;DHT22;10008;48.682;9.016;2023-04-15T14:50:52;12.00;63.60
3406;DHT22;10008;48.682;9.016;2023-04-15T14:53:18;12.10;63.30
3406;DHT22;10008;48.682;9.016;2023-04-15T14:55:44;12.10;63.80
3406;DHT22;10008;48.682;9.016;2023-04-15T14:58:10;12.20;64.30
3406;DHT22;10008;48.682;9.016;2023-04-15T15:00:37;12.20;65.10
3406;DHT22;10008;48.682;9.016;2023-04-15T15:03:09;12.20;65.60
3406;DHT22;10008;48.682;9.016;2023-04-15T15:05:44;12.20;67.70
3406;DHT22;10008;48.682;9.016;2023-04-15T15:08:11;12.00;66.30
3406;DHT22;10008;48.682;9.016;2023-04-15T15:10:37;12.10;67.40
3406;DHT22;10008;48.682;9.016;2023-04-15T15:13:05;12.00;68.30
3406;DHT22;10008;48.682;9.016;2023-04-15T15:15:32;11.90;69.10
3406;DHT22;10008;48.682;9.016;2023-04-15T15:17:57;11.80;69.90
3406;DHT22;10008;48.682;9.016;2023-04-15T15:20:24;11.80;72.20
3406;DHT22;10008;48.682;9.016;2023-04-15T15:22:50;11.60;73.30
3406;DHT22;10008;48.682;9.016;2023-04-15T15:25:16;11.70;73.10
3406;DHT22;10008;48.682;9.016;2023-04-15T15:27:42;11.70;74.70
3406;DHT22;10008;48.682;9.016;2023-04-15T15:30:08;11.70;75.60
3406;DHT22;10008;48.682;9.016;2023-04-15T15:32:34;11.70;75.60
3406;DHT22;10008;48.682;9.016;2023-04-15T15:35:00;11.70;77.00
3406;DHT22;10008;48.682;9.016;2023-04-15T15:37:26;11.70;77.20
3406;DHT22;10008;48.682;9.016;2023-04-15T15:39:52;11.70;77.00
3406;DHT22;10008;48.682;9.016;2023-04-15T15:42:18;11.80;76.40
3406;DHT22;10008;48.682;9.016;2023-04-15T15:44:44;11.70;77.40
3406;DHT22;10008;48.682;9.016;2023-04-15T15:47:10;11.80;78.30
3406;DHT22;10008;48.682;9.016;2023-04-15T15:49:39;11.70;78.10
3406;DHT22;10008;48.682;9.016;2023-04-15T15:52:05;11.80;77.60
3406;DHT22;10008;48.682;9.016;2023-04-15T15:54:31;11.80;77.60
3406;DHT22;10008;48.682;9.016;2023-04-15T15:56:56;11.80;78.00
3406;DHT22;10008;48.682;9.016;2023-04-15T15:59:23;11.70;77.40
3406;DHT22;10008;48.682;9.016;2023-04-15T16:01:50;11.70;77.30
3406;DHT22;10008;48.682;9.016;2023-04-15T16:04:16;11.70;79.90
3406;DHT22;10008;48.682;9.016;2023-04-15T16:06:41;11.50;79.60
3406;DHT22;10008;48.682;9.016;2023-04-15T16:09:09;11.50;80.90
3406;DHT22;10008;48.682;9.016;2023-04-15T16:11:35;11.30;79.40
3406;DHT22;10008;48.682;9.016;2023-04-15T16:14:01;11.30;80.20
3406;DHT22;10008;48.682;9.016;2023-04-15T16:16:26;11.20;79.40
3406;DHT22;10008;48.682;9.016;2023-04-15T16:19:00;11.20;81.20
3406;DHT22;10008;48.682;9.016;2023-04-15T16:21:25;11.30;79.20
3406;DHT22;10008;48.682;9.016;2023-04-15T16:23:52;11.20;80.40
3406;DHT22;10008;48.682;9.016;2023-04-15T16:26:18;11.30;80.10
3406;DHT22;10008;48.682;9.016;2023-04-15T16:28:43;11.30;80.40
3406;DHT22;10008;48.682;9.016;2023-04-15T16:31:10;11.40;79.50
3406;DHT22;10008;48.682;9.016;2023-04-15T16:33:37;11.40;79.90
3406;DHT22;10008;48.682;9.016;2023-04-15T16:36:03;11.40;81.30
3406;DHT22;10008;48.682;9.016;2023-04-15T16:38:29;11.20;84.30
3406;DHT22;10008;48.682;9.016;2023-04-15T16:40:58;11.10;85.20
3406;DHT22;10008;48.682;9.016;2023-04-15T16:43:24;11.00;87.30
3406;DHT22;10008;48.682;9.016;2023-04-15T16:45:50;10.90;89.10
3406;DHT22;10008;48.682;9.016;2023-04-15T16:48:17;10.80;91.80
3406;DHT22;10008;48.682;9.016;2023-04-15T16:50:43;10.70;92.20
3406;DHT22;10008;48.682;9.016;2023-04-15T16:53:09;10.60;94.30
3406;DHT22;10008;48.682;9.016;2023-04-15T16:55:34;10.50;94.40
3406;DHT22;10008;48.682;9.016;2023-04-15T16:58:00;10.30;96.10
3406;DHT22;10008;48.682;9.016;2023-04-15T17:00:27;10.20;97.10
3406;DHT22;10008;48.682;9.016;2023-04-15T17:02:54;10.20;99.00
3406;DHT22;10008;48.682;9.016;2023-04-15T17:05:20;10.30;99.80
3406;DHT22;10008;48.682;9.016;2023-04-15T17:07:46;10.30;99.90
3406;DHT22;10008;48.682;9.016;2023-04-15T17:10:12;10.20;99.90
3406;DHT22;10008;48.682;9.016;2023-04-15T17:12:40;10.20;99.90
3406;DHT22;10008;48.682;9.016;2023-04-15T17:15:06;9.80;99.90
3406;DHT22;10008;48.682;9.016;2023-04-15T17:17:32;9.70;99.90
3406;DHT22;10008;48.682;9.016;2023-04-15T17:19:58;9.60;99.90
3406;DHT22;10008;48.682;9.016;2023-04-15T17:22:24;9.50;99.90
3406;DHT22;10008;48.682;9.016;2023-04-15T17:24:49;9.40;99.90
3406;DHT22;10008;48.682;9.016;2023-04-15T17:27:15;9.30;99.90
3406;DHT22;10008;48.682;9.016;2023-04-15T17:29:41;9.10;99.90
3406;DHT22;10008;48.682;9.016;2023-04-15T17:32:07;9.00;99.90
3406;DHT22;10008;48.682;9.016;2023-04-15T17:34:34;8.90;99.90
3406;DHT22;10008;48.682;9.016;2023-04-15T17:37:00;8.80;99.90
3406;DHT22;10008;48.682;9.016;2023-04-15T17:39:26;8.80;99.90
3406;DHT22;10008;48.682;9.016;2023-04-15T17:41:51;8.60;99.90
3406;DHT22;10008;48.682;9.016;2023-04-15T17:44:17;8.60;99.90
3406;DHT22;10008;48.682;9.016;2023-04-15T17:46:43;8.50;99.90
3406;DHT22;10008;48.682;9.016;2023-04-15T17:49:09;8.50;99.90
3406;DHT22;10008;48.682;9.016;2023-04-15T17:51:35;8.40;99.90
3406;DHT22;10008;48.682;9.016;2023-04-15T17:54:06;8.30;99.90
3406;DHT22;10008;48.682;9.016;2023-04-15T17:56:33;8.20;99.90
3406;DHT22;10008;48.682;9.016;2023-04-15T17:58:59;8.20;99.90
3406;DHT22;10008;48.682;9.016;2023-04-15T18:01:26;8.30;99.90
3406;DHT22;10008;48.682;9.016;2023-04-15T18:03:52;8.10;99.90
3406;DHT22;10008;48.682;9.016;2023-04-15T18:06:18;8.10;99.90
3406;DHT22;10008;48.682;9.016;2023-04-15T18:08:46;8.10;99.90
3406;DHT22;10008;48.682;9.016;2023-04-15T18:11:12;8.10;99.90
3406;DHT22;10008;48.682;9.016;2023-04-15T18:13:37;7.90;99.90
3406;DHT22;10008;48.682;9.016;2023-04-15T18:16:04;7.80;99.90
3406;DHT22;10008;48.682;9.016;2023-04-15T18:18:30;7.80;99.90
3406;DHT22;10008;48.682;9.016;2023-04-15T18:20:56;7.90;99.90